sensor_id;sensor_type;location;lat;lon;timestamp;temperature;humidity
64652;HTU21D;51062;45.120;37.660;2024-02-26T00:01:43;0.65;69.68
64652;HTU21D;51062;45.120;37.660;2024-02-26T00:04:12;0.65;69.68
64652;HTU21D;51062;45.120;37.660;2024-02-26T00:06:38;0.63;69.68
64652;HTU21D;51062;45.120;37.660;2024-02-26T00:09:07;0.61;69.70
64652;HTU21D;51062;45.120;37.660;2024-02-26T00:11:35;0.59;69.71
64652;HTU21D;51062;45.120;37.660;2024-02-26T00:14:00;0.57;69.71
64652;HTU21D;51062;45.120;37.660;2024-02-26T00:16:26;0.57;69.80
64652;HTU21D;51062;45.120;37.660;2024-02-26T00:18:52;0.53;69.79
64652;HTU21D;51062;45.120;37.660;2024-02-26T00:21:18;0.49;69.84
64652;HTU21D;51062;45.120;37.660;2024-02-26T00:23:44;0.47;69.87
64652;HTU21D;51062;45.120;37.660;2024-02-26T00:26:10;0.44;69.90
64652;HTU21D;51062;45.120;37.660;2024-02-26T00:28:36;0.42;69.90
64652;HTU21D;51062;45.120;37.660;2024-02-26T00:31:03;0.38;69.98
64652;HTU21D;51062;45.120;37.660;2024-02-26T00:33:28;0.39;69.99
64652;HTU21D;51062;45.120;37.660;2024-02-26T00:35:54;0.38;70.00
64652;HTU21D;51062;45.120;37.660;2024-02-26T00:38:20;0.37;69.97
64652;HTU21D;51062;45.120;37.660;2024-02-26T00:40:46;0.36;69.94
64652;HTU21D;51062;45.120;37.660;2024-02-26T00:43:12;0.36;69.91
64652;HTU21D;51062;45.120;37.660;2024-02-26T00:45:38;0.35;69.87
64652;HTU21D;51062;45.120;37.660;2024-02-26T00:48:04;0.34;69.84
64652;HTU21D;51062;45.120;37.660;2024-02-26T00:50:31;0.34;69.87
64652;HTU21D;51062;45.120;37.660;2024-02-26T00:52:57;0.31;69.85
64652;HTU21D;51062;45.120;37.660;2024-02-26T00:55:23;0.30;69.90
64652;HTU21D;51062;45.120;37.660;2024-02-26T00:57:49;0.28;70.02
64652;HTU21D;51062;45.120;37.660;2024-02-26T01:00:15;0.27;70.04
64652;HTU21D;51062;45.120;37.660;2024-02-26T01:02:41;0.24;70.06
64652;HTU21D;51062;45.120;37.660;2024-02-26T01:05:07;0.22;70.07
64652;HTU21D;51062;45.120;37.660;2024-02-26T01:07:37;0.21;70.07
64652;HTU21D;51062;45.120;37.660;2024-02-26T01:10:05;0.19;70.06
64652;HTU21D;51062;45.120;37.660;2024-02-26T01:12:34;0.17;70.14
64652;HTU21D;51062;45.120;37.660;2024-02-26T01:15:03;0.16;70.16
64652;HTU21D;51062;45.120;37.660;2024-02-26T01:17:30;0.14;70.16
64652;HTU21D;51062;45.120;37.660;2024-02-26T01:19:56;0.12;70.16
64652;HTU21D;51062;45.120;37.660;2024-02-26T01:22:22;0.09;70.14
64652;HTU21D;51062;45.120;37.660;2024-02-26T01:24:48;0.08;70.17
64652;HTU21D;51062;45.120;37.660;2024-02-26T01:27:14;0.07;70.26
64652;HTU21D;51062;45.120;37.660;2024-02-26T01:29:41;0.06;70.32
64652;HTU21D;51062;45.120;37.660;2024-02-26T01:32:07;0.07;70.38
64652;HTU21D;51062;45.120;37.660;2024-02-26T01:37:50;0.05;70.40
64652;HTU21D;51062;45.120;37.660;2024-02-26T01:40:16;0.03;70.35
64652;HTU21D;51062;45.120;37.660;2024-02-26T01:42:45;-0.00;70.28
64652;HTU21D;51062;45.120;37.660;2024-02-26T01:45:13;-0.03;70.29
64652;HTU21D;51062;45.120;37.660;2024-02-26T01:47:41;-0.07;70.35
64652;HTU21D;51062;45.120;37.660;2024-02-26T01:50:07;-0.10;70.40
64652;HTU21D;51062;45.120;37.660;2024-02-26T01:52:34;-0.14;70.49
64652;HTU21D;51062;45.120;37.660;2024-02-26T01:55:00;-0.17;70.55
64652;HTU21D;51062;45.120;37.660;2024-02-26T01:57:27;-0.19;70.58
64652;HTU21D;51062;45.120;37.660;2024-02-26T01:59:53;-0.23;70.64
64652;HTU21D;51062;45.120;37.660;2024-02-26T02:02:19;-0.25;70.71
64652;HTU21D;51062;45.120;37.660;2024-02-26T02:04:46;-0.28;70.76
64652;HTU21D;51062;45.120;37.660;2024-02-26T02:07:11;-0.29;70.78
64652;HTU21D;51062;45.120;37.660;2024-02-26T02:09:38;-0.29;70.84
64652;HTU21D;51062;45.120;37.660;2024-02-26T02:12:04;-0.29;70.90
64652;HTU21D;51062;45.120;37.660;2024-02-26T02:14:30;-0.29;70.96
64652;HTU21D;51062;45.120;37.660;2024-02-26T02:16:56;-0.30;70.93
64652;HTU21D;51062;45.120;37.660;2024-02-26T02:19:22;-0.31;70.95
64652;HTU21D;51062;45.120;37.660;2024-02-26T02:21:47;-0.32;70.94
64652;HTU21D;51062;45.120;37.660;2024-02-26T02:24:13;-0.34;70.93
64652;HTU21D;51062;45.120;37.660;2024-02-26T02:26:39;-0.35;70.95
64652;HTU21D;51062;45.120;37.660;2024-02-26T02:29:06;-0.36;70.96
64652;HTU21D;51062;45.120;37.660;2024-02-26T02:31:32;-0.37;70.98
64652;HTU21D;51062;45.120;37.660;2024-02-26T02:33:58;-0.38;71.01
64652;HTU21D;51062;45.120;37.660;2024-02-26T02:36:25;-0.38;71.03
64652;HTU21D;51062;45.120;37.660;2024-02-26T02:38:51;-0.41;71.06
64652;HTU21D;51062;45.120;37.660;2024-02-26T02:41:17;-0.42;71.06
64652;HTU21D;51062;45.120;37.660;2024-02-26T02:43:43;-0.43;71.13
64652;HTU21D;51062;45.120;37.660;2024-02-26T02:46:09;-0.43;71.23
64652;HTU21D;51062;45.120;37.660;2024-02-26T02:48:37;-0.45;71.20
64652;HTU21D;51062;45.120;37.660;2024-02-26T02:51:04;-0.45;71.22
64652;HTU21D;51062;45.120;37.660;2024-02-26T02:53:30;-0.46;71.24
64652;HTU21D;51062;45.120;37.660;2024-02-26T02:55:56;-0.47;71.36
64652;HTU21D;51062;45.120;37.660;2024-02-26T02:58:22;-0.49;71.34
64652;HTU21D;51062;45.120;37.660;2024-02-26T03:00:48;-0.52;71.33
64652;HTU21D;51062;45.120;37.660;2024-02-26T03:03:14;-0.55;71.44
64652;HTU21D;51062;45.120;37.660;2024-02-26T03:05:39;-0.57;71.53
64652;HTU21D;51062;45.120;37.660;2024-02-26T03:08:05;-0.60;71.67
64652;HTU21D;51062;45.120;37.660;2024-02-26T03:10:31;-0.64;71.70
64652;HTU21D;51062;45.120;37.660;2024-02-26T03:12:57;-0.66;71.89
64652;HTU21D;51062;45.120;37.660;2024-02-26T03:15:23;-0.68;71.88
64652;HTU21D;51062;45.120;37.660;2024-02-26T03:17:49;-0.68;71.84
64652;HTU21D;51062;45.120;37.660;2024-02-26T03:20:15;-0.70;71.85
64652;HTU21D;51062;45.120;37.660;2024-02-26T03:22:41;-0.72;71.89
64652;HTU21D;51062;45.120;37.660;2024-02-26T03:25:07;-0.73;71.86
64652;HTU21D;51062;45.120;37.660;2024-02-26T03:27:33;-0.75;71.83
64652;HTU21D;51062;45.120;37.660;2024-02-26T03:29:59;-0.75;71.77
64652;HTU21D;51062;45.120;37.660;2024-02-26T03:32:25;-0.79;71.72
64652;HTU21D;51062;45.120;37.660;2024-02-26T03:34:51;-0.80;71.71
64652;HTU21D;51062;45.120;37.660;2024-02-26T03:37:19;-0.81;71.71
64652;HTU21D;51062;45.120;37.660;2024-02-26T03:39:45;-0.82;71.69
64652;HTU21D;51062;45.120;37.660;2024-02-26T03:42:11;-0.82;71.64
64652;HTU21D;51062;45.120;37.660;2024-02-26T03:44:37;-0.83;71.64
64652;HTU21D;51062;45.120;37.660;2024-02-26T03:47:03;-0.83;71.77
64652;HTU21D;51062;45.120;37.660;2024-02-26T03:49:29;0.00;71.71
64652;HTU21D;51062;45.120;37.660;2024-02-26T03:51:55;-0.83;71.74
64652;HTU21D;51062;45.120;37.660;2024-02-26T03:54:22;-0.82;71.79
64652;HTU21D;51062;45.120;37.660;2024-02-26T03:56:47;-0.82;71.72
64652;HTU21D;51062;45.120;37.660;2024-02-26T03:59:14;-0.80;71.72
64652;HTU21D;51062;45.120;37.660;2024-02-26T04:01:44;-0.80;71.74
64652;HTU21D;51062;45.120;37.660;2024-02-26T04:04:10;-0.79;71.68
64652;HTU21D;51062;45.120;37.660;2024-02-26T04:06:36;-0.77;71.67
64652;HTU21D;51062;45.120;37.660;2024-02-26T04:09:02;-0.77;71.67
64652;HTU21D;51062;45.120;37.660;2024-02-26T04:11:29;-0.76;71.65
64652;HTU21D;51062;45.120;37.660;2024-02-26T04:13:56;-0.77;71.68
64652;HTU21D;51062;45.120;37.660;2024-02-26T04:16:22;-0.77;71.67
64652;HTU21D;51062;45.120;37.660;2024-02-26T04:18:48;-0.79;71.69
64652;HTU21D;51062;45.120;37.660;2024-02-26T04:21:15;-0.77;71.74
64652;HTU21D;51062;45.120;37.660;2024-02-26T04:23:41;-0.74;71.82
64652;HTU21D;51062;45.120;37.660;2024-02-26T04:26:07;-0.71;71.86
64652;HTU21D;51062;45.120;37.660;2024-02-26T04:28:33;-0.68;71.89
64652;HTU21D;51062;45.120;37.660;2024-02-26T04:30:58;-0.64;72.13
64652;HTU21D;51062;45.120;37.660;2024-02-26T04:33:24;-0.39;72.48
64652;HTU21D;51062;45.120;37.660;2024-02-26T04:35:50;-0.05;72.58
64652;HTU21D;51062;45.120;37.660;2024-02-26T04:38:16;0.37;72.45
64652;HTU21D;51062;45.120;37.660;2024-02-26T04:40:42;0.88;72.26
64652;HTU21D;51062;45.120;37.660;2024-02-26T04:43:08;1.37;71.77
64652;HTU21D;51062;45.120;37.660;2024-02-26T04:45:34;1.79;71.25
64652;HTU21D;51062;45.120;37.660;2024-02-26T04:48:00;2.14;70.68
64652;HTU21D;51062;45.120;37.660;2024-02-26T04:50:26;2.30;70.17
64652;HTU21D;51062;45.120;37.660;2024-02-26T04:52:52;2.52;69.96
64652;HTU21D;51062;45.120;37.660;2024-02-26T04:55:18;2.74;69.67
64652;HTU21D;51062;45.120;37.660;2024-02-26T04:57:44;3.09;69.04
64652;HTU21D;51062;45.120;37.660;2024-02-26T05:00:10;3.42;68.44
64652;HTU21D;51062;45.120;37.660;2024-02-26T05:02:36;3.44;67.97
64652;HTU21D;51062;45.120;37.660;2024-02-26T05:05:04;3.12;67.94
64652;HTU21D;51062;45.120;37.660;2024-02-26T05:07:30;3.25;68.79
64652;HTU21D;51062;45.120;37.660;2024-02-26T05:09:56;3.75;67.79
64652;HTU21D;51062;45.120;37.660;2024-02-26T05:12:22;4.24;67.43
64652;HTU21D;51062;45.120;37.660;2024-02-26T05:14:48;4.60;66.94
64652;HTU21D;51062;45.120;37.660;2024-02-26T05:17:14;4.88;67.03
64652;HTU21D;51062;45.120;37.660;2024-02-26T05:19:40;5.21;67.27
64652;HTU21D;51062;45.120;37.660;2024-02-26T05:22:06;5.65;67.36
64652;HTU21D;51062;45.120;37.660;2024-02-26T05:24:32;6.01;67.01
64652;HTU21D;51062;45.120;37.660;2024-02-26T05:26:58;6.30;67.05
64652;HTU21D;51062;45.120;37.660;2024-02-26T05:29:24;6.69;66.67
64652;HTU21D;51062;45.120;37.660;2024-02-26T05:31:50;6.90;66.17
64652;HTU21D;51062;45.120;37.660;2024-02-26T05:34:16;7.08;66.01
64652;HTU21D;51062;45.120;37.660;2024-02-26T05:36:42;7.32;66.04
64652;HTU21D;51062;45.120;37.660;2024-02-26T05:39:08;7.62;65.61
64652;HTU21D;51062;45.120;37.660;2024-02-26T05:41:36;7.81;65.68
64652;HTU21D;51062;45.120;37.660;2024-02-26T05:44:02;7.98;65.09
64652;HTU21D;51062;45.120;37.660;2024-02-26T05:46:29;8.08;64.83
64652;HTU21D;51062;45.120;37.660;2024-02-26T05:48:55;8.13;64.30
64652;HTU21D;51062;45.120;37.660;2024-02-26T05:51:21;8.19;64.19
64652;HTU21D;51062;45.120;37.660;2024-02-26T05:53:47;8.32;63.63
64652;HTU21D;51062;45.120;37.660;2024-02-26T05:56:19;8.34;63.26
64652;HTU21D;51062;45.120;37.660;2024-02-26T05:58:46;8.45;62.46
64652;HTU21D;51062;45.120;37.660;2024-02-26T06:01:12;8.30;62.37
64652;HTU21D;51062;45.120;37.660;2024-02-26T06:03:38;8.17;62.51
64652;HTU21D;51062;45.120;37.660;2024-02-26T06:06:03;8.21;62.73
64652;HTU21D;51062;45.120;37.660;2024-02-26T06:08:29;8.33;62.94
64652;HTU21D;51062;45.120;37.660;2024-02-26T06:10:55;8.46;62.52
64652;HTU21D;51062;45.120;37.660;2024-02-26T06:13:21;8.59;62.59
64652;HTU21D;51062;45.120;37.660;2024-02-26T06:15:47;8.71;62.49
64652;HTU21D;51062;45.120;37.660;2024-02-26T06:18:13;8.83;61.76
64652;HTU21D;51062;45.120;37.660;2024-02-26T06:20:39;8.93;62.06
64652;HTU21D;51062;45.120;37.660;2024-02-26T06:23:05;9.06;61.39
64652;HTU21D;51062;45.120;37.660;2024-02-26T06:25:31;9.10;61.69
64652;HTU21D;51062;45.120;37.660;2024-02-26T06:27:57;9.30;61.19
64652;HTU21D;51062;45.120;37.660;2024-02-26T06:30:23;9.25;60.92
64652;HTU21D;51062;45.120;37.660;2024-02-26T06:32:49;9.30;60.74
64652;HTU21D;51062;45.120;37.660;2024-02-26T06:35:14;9.47;60.72
64652;HTU21D;51062;45.120;37.660;2024-02-26T06:37:40;9.67;60.48
64652;HTU21D;51062;45.120;37.660;2024-02-26T06:40:06;9.60;60.27
64652;HTU21D;51062;45.120;37.660;2024-02-26T06:42:33;9.48;60.40
64652;HTU21D;51062;45.120;37.660;2024-02-26T06:44:59;9.49;60.71
64652;HTU21D;51062;45.120;37.660;2024-02-26T06:47:24;9.63;60.85
64652;HTU21D;51062;45.120;37.660;2024-02-26T06:49:51;9.75;59.37
64652;HTU21D;51062;45.120;37.660;2024-02-26T06:52:17;9.76;59.46
64652;HTU21D;51062;45.120;37.660;2024-02-26T06:54:43;9.97;59.23
64652;HTU21D;51062;45.120;37.660;2024-02-26T06:57:10;10.22;59.30
64652;HTU21D;51062;45.120;37.660;2024-02-26T06:59:36;10.46;58.48
64652;HTU21D;51062;45.120;37.660;2024-02-26T07:02:02;10.59;58.13
64652;HTU21D;51062;45.120;37.660;2024-02-26T07:04:28;10.54;57.81
64652;HTU21D;51062;45.120;37.660;2024-02-26T07:06:54;10.30;57.64
64652;HTU21D;51062;45.120;37.660;2024-02-26T07:09:20;10.04;57.79
64652;HTU21D;51062;45.120;37.660;2024-02-26T07:11:46;9.90;58.40
64652;HTU21D;51062;45.120;37.660;2024-02-26T07:14:12;9.99;58.10
64652;HTU21D;51062;45.120;37.660;2024-02-26T07:16:38;10.05;57.67
64652;HTU21D;51062;45.120;37.660;2024-02-26T07:19:04;10.10;57.65
64652;HTU21D;51062;45.120;37.660;2024-02-26T07:21:30;10.13;57.39
64652;HTU21D;51062;45.120;37.660;2024-02-26T07:23:56;10.14;57.39
64652;HTU21D;51062;45.120;37.660;2024-02-26T07:26:23;10.09;57.38
64652;HTU21D;51062;45.120;37.660;2024-02-26T07:28:50;10.08;57.39
64652;HTU21D;51062;45.120;37.660;2024-02-26T07:31:17;10.03;57.12
64652;HTU21D;51062;45.120;37.660;2024-02-26T07:33:43;10.08;57.44
64652;HTU21D;51062;45.120;37.660;2024-02-26T07:36:09;10.22;57.36
64652;HTU21D;51062;45.120;37.660;2024-02-26T07:38:34;10.38;56.82
64652;HTU21D;51062;45.120;37.660;2024-02-26T07:41:01;10.41;56.61
64652;HTU21D;51062;45.120;37.660;2024-02-26T07:43:27;10.44;56.76
64652;HTU21D;51062;45.120;37.660;2024-02-26T07:45:53;10.59;56.58
64652;HTU21D;51062;45.120;37.660;2024-02-26T07:48:19;10.65;56.39
64652;HTU21D;51062;45.120;37.660;2024-02-26T07:50:45;10.57;56.18
64652;HTU21D;51062;45.120;37.660;2024-02-26T07:53:11;10.48;55.92
64652;HTU21D;51062;45.120;37.660;2024-02-26T07:55:37;10.43;56.37
64652;HTU21D;51062;45.120;37.660;2024-02-26T07:58:03;10.42;56.04
64652;HTU21D;51062;45.120;37.660;2024-02-26T08:00:29;10.33;56.19
64652;HTU21D;51062;45.120;37.660;2024-02-26T08:02:55;10.21;56.01
64652;HTU21D;51062;45.120;37.660;2024-02-26T08:05:21;10.14;56.23
64652;HTU21D;51062;45.120;37.660;2024-02-26T08:07:47;10.23;56.00
64652;HTU21D;51062;45.120;37.660;2024-02-26T08:10:13;10.13;56.16
64652;HTU21D;51062;45.120;37.660;2024-02-26T08:12:39;10.07;56.19
64652;HTU21D;51062;45.120;37.660;2024-02-26T08:15:05;9.97;56.31
64652;HTU21D;51062;45.120;37.660;2024-02-26T08:17:31;10.08;56.45
64652;HTU21D;51062;45.120;37.660;2024-02-26T08:19:59;10.18;56.02
64652;HTU21D;51062;45.120;37.660;2024-02-26T08:22:24;10.27;55.71
64652;HTU21D;51062;45.120;37.660;2024-02-26T08:24:50;10.21;55.54
64652;HTU21D;51062;45.120;37.660;2024-02-26T08:27:16;10.00;55.68
64652;HTU21D;51062;45.120;37.660;2024-02-26T08:29:43;9.88;55.61
64652;HTU21D;51062;45.120;37.660;2024-02-26T08:32:08;9.56;55.38
64652;HTU21D;51062;45.120;37.660;2024-02-26T08:34:34;9.03;56.29
64652;HTU21D;51062;45.120;37.660;2024-02-26T08:37:00;8.49;57.25
64652;HTU21D;51062;45.120;37.660;2024-02-26T08:39:26;7.96;58.16
64652;HTU21D;51062;45.120;37.660;2024-02-26T08:41:52;7.56;58.80
64652;HTU21D;51062;45.120;37.660;2024-02-26T08:44:18;7.23;59.38
64652;HTU21D;51062;45.120;37.660;2024-02-26T08:46:44;7.04;60.02
64652;HTU21D;51062;45.120;37.660;2024-02-26T08:49:11;6.97;60.32
64652;HTU21D;51062;45.120;37.660;2024-02-26T08:51:43;6.90;60.46
64652;HTU21D;51062;45.120;37.660;2024-02-26T08:54:09;6.88;60.67
64652;HTU21D;51062;45.120;37.660;2024-02-26T08:56:35;6.81;60.71
64652;HTU21D;51062;45.120;37.660;2024-02-26T08:59:01;6.80;60.96
64652;HTU21D;51062;45.120;37.660;2024-02-26T09:01:30;6.83;61.09
64652;HTU21D;51062;45.120;37.660;2024-02-26T09:03:56;6.86;61.13
64652;HTU21D;51062;45.120;37.660;2024-02-26T09:06:22;6.89;61.12
64652;HTU21D;51062;45.120;37.660;2024-02-26T09:08:48;6.90;61.25
64652;HTU21D;51062;45.120;37.660;2024-02-26T09:11:14;6.95;61.27
64652;HTU21D;51062;45.120;37.660;2024-02-26T09:13:40;6.97;61.29
64652;HTU21D;51062;45.120;37.660;2024-02-26T09:16:06;6.99;61.36
64652;HTU21D;51062;45.120;37.660;2024-02-26T09:18:32;7.00;61.44
64652;HTU21D;51062;45.120;37.660;2024-02-26T09:20:58;7.05;61.44
64652;HTU21D;51062;45.120;37.660;2024-02-26T09:23:24;7.05;61.38
64652;HTU21D;51062;45.120;37.660;2024-02-26T09:25:50;7.04;61.35
64652;HTU21D;51062;45.120;37.660;2024-02-26T09:28:16;7.00;61.40
64652;HTU21D;51062;45.120;37.660;2024-02-26T09:30:45;7.05;61.57
64652;HTU21D;51062;45.120;37.660;2024-02-26T09:33:13;7.09;61.49
64652;HTU21D;51062;45.120;37.660;2024-02-26T09:35:39;7.10;61.47
64652;HTU21D;51062;45.120;37.660;2024-02-26T09:38:05;7.09;61.54
64652;HTU21D;51062;45.120;37.660;2024-02-26T09:40:31;7.09;61.57
64652;HTU21D;51062;45.120;37.660;2024-02-26T09:42:59;7.12;61.53
64652;HTU21D;51062;45.120;37.660;2024-02-26T09:45:25;7.09;61.51
64652;HTU21D;51062;45.120;37.660;2024-02-26T09:47:53;7.08;61.61
64652;HTU21D;51062;45.120;37.660;2024-02-26T09:50:20;7.12;61.76
64652;HTU21D;51062;45.120;37.660;2024-02-26T09:52:48;7.18;61.73
64652;HTU21D;51062;45.120;37.660;2024-02-26T09:55:15;7.24;61.62
64652;HTU21D;51062;45.120;37.660;2024-02-26T09:57:51;7.26;61.54
64652;HTU21D;51062;45.120;37.660;2024-02-26T10:00:17;7.25;61.54
64652;HTU21D;51062;45.120;37.660;2024-02-26T10:02:48;7.29;61.69
64652;HTU21D;51062;45.120;37.660;2024-02-26T10:05:17;7.31;61.64
64652;HTU21D;51062;45.120;37.660;2024-02-26T10:07:46;7.37;61.66
64652;HTU21D;51062;45.120;37.660;2024-02-26T10:10:15;7.41;61.62
64652;HTU21D;51062;45.120;37.660;2024-02-26T10:12:41;7.47;61.65
64652;HTU21D;51062;45.120;37.660;2024-02-26T10:15:07;7.49;61.49
64652;HTU21D;51062;45.120;37.660;2024-02-26T10:17:33;7.53;61.58
64652;HTU21D;51062;45.120;37.660;2024-02-26T10:20:14;7.56;61.43
64652;HTU21D;51062;45.120;37.660;2024-02-26T10:22:44;7.60;61.49
64652;HTU21D;51062;45.120;37.660;2024-02-26T10:25:10;7.64;61.53
64652;HTU21D;51062;45.120;37.660;2024-02-26T10:27:36;7.74;61.57
64652;HTU21D;51062;45.120;37.660;2024-02-26T10:30:03;7.77;61.44
64652;HTU21D;51062;45.120;37.660;2024-02-26T10:32:29;7.83;61.53
64652;HTU21D;51062;45.120;37.660;2024-02-26T10:34:55;7.88;61.52
64652;HTU21D;51062;45.120;37.660;2024-02-26T10:37:22;7.93;61.50
64652;HTU21D;51062;45.120;37.660;2024-02-26T10:39:48;7.99;61.54
64652;HTU21D;51062;45.120;37.660;2024-02-26T10:42:14;8.04;61.36
64652;HTU21D;51062;45.120;37.660;2024-02-26T10:44:40;8.07;61.21
64652;HTU21D;51062;45.120;37.660;2024-02-26T10:47:08;8.07;61.28
64652;HTU21D;51062;45.120;37.660;2024-02-26T10:49:35;8.12;61.20
64652;HTU21D;51062;45.120;37.660;2024-02-26T10:52:01;8.14;61.25
64652;HTU21D;51062;45.120;37.660;2024-02-26T10:54:29;8.19;61.31
64652;HTU21D;51062;45.120;37.660;2024-02-26T10:56:56;8.24;61.28
64652;HTU21D;51062;45.120;37.660;2024-02-26T10:59:22;8.30;61.23
64652;HTU21D;51062;45.120;37.660;2024-02-26T11:01:48;8.35;61.15
64652;HTU21D;51062;45.120;37.660;2024-02-26T11:04:15;8.39;61.11
64652;HTU21D;51062;45.120;37.660;2024-02-26T11:06:42;8.47;61.16
64652;HTU21D;51062;45.120;37.660;2024-02-26T11:09:08;8.56;61.29
64652;HTU21D;51062;45.120;37.660;2024-02-26T11:11:38;8.62;60.77
64652;HTU21D;51062;45.120;37.660;2024-02-26T11:14:06;8.62;60.68
64652;HTU21D;51062;45.120;37.660;2024-02-26T11:16:32;8.64;60.78
64652;HTU21D;51062;45.120;37.660;2024-02-26T11:19:00;8.70;60.93
64652;HTU21D;51062;45.120;37.660;2024-02-26T11:21:25;8.74;60.80
64652;HTU21D;51062;45.120;37.660;2024-02-26T11:24:13;8.80;60.82
64652;HTU21D;51062;45.120;37.660;2024-02-26T11:26:43;8.88;60.72
64652;HTU21D;51062;45.120;37.660;2024-02-26T11:29:13;8.89;60.25
64652;HTU21D;51062;45.120;37.660;2024-02-26T11:31:41;8.87;60.26
64652;HTU21D;51062;45.120;37.660;2024-02-26T11:34:08;8.86;60.45
64652;HTU21D;51062;45.120;37.660;2024-02-26T11:36:34;8.85;60.39
64652;HTU21D;51062;45.120;37.660;2024-02-26T11:39:02;8.86;60.30
64652;HTU21D;51062;45.120;37.660;2024-02-26T11:41:29;8.87;60.15
64652;HTU21D;51062;45.120;37.660;2024-02-26T11:44:00;8.86;60.08
64652;HTU21D;51062;45.120;37.660;2024-02-26T11:46:31;8.86;60.18
64652;HTU21D;51062;45.120;37.660;2024-02-26T11:48:58;8.87;60.38
64652;HTU21D;51062;45.120;37.660;2024-02-26T11:51:28;8.89;60.25
64652;HTU21D;51062;45.120;37.660;2024-02-26T11:53:57;8.92;60.44
64652;HTU21D;51062;45.120;37.660;2024-02-26T11:56:24;8.95;60.30
64652;HTU21D;51062;45.120;37.660;2024-02-26T11:59:10;8.96;60.19
64652;HTU21D;51062;45.120;37.660;2024-02-26T12:04:02;8.91;59.96
64652;HTU21D;51062;45.120;37.660;2024-02-26T12:06:29;8.89;59.96
64652;HTU21D;51062;45.120;37.660;2024-02-26T12:08:56;8.89;60.03
64652;HTU21D;51062;45.120;37.660;2024-02-26T12:11:22;8.91;60.02
64652;HTU21D;51062;45.120;37.660;2024-02-26T12:13:48;8.90;59.77
64652;HTU21D;51062;45.120;37.660;2024-02-26T12:16:35;8.91;59.90
64652;HTU21D;51062;45.120;37.660;2024-02-26T12:19:06;8.93;60.01
64652;HTU21D;51062;45.120;37.660;2024-02-26T12:21:34;8.95;60.03
64652;HTU21D;51062;45.120;37.660;2024-02-26T12:24:07;8.95;59.74
64652;HTU21D;51062;45.120;37.660;2024-02-26T12:26:33;8.96;59.83
64652;HTU21D;51062;45.120;37.660;2024-02-26T12:28:59;8.98;59.83
64652;HTU21D;51062;45.120;37.660;2024-02-26T12:31:25;9.00;59.89
64652;HTU21D;51062;45.120;37.660;2024-02-26T12:33:53;8.98;59.73
64652;HTU21D;51062;45.120;37.660;2024-02-26T12:36:20;8.96;59.89
64652;HTU21D;51062;45.120;37.660;2024-02-26T12:38:46;8.98;59.87
64652;HTU21D;51062;45.120;37.660;2024-02-26T12:41:12;9.00;59.75
64652;HTU21D;51062;45.120;37.660;2024-02-26T12:43:38;9.02;59.67
64652;HTU21D;51062;45.120;37.660;2024-02-26T12:46:04;9.03;59.67
64652;HTU21D;51062;45.120;37.660;2024-02-26T12:48:30;9.04;59.72
64652;HTU21D;51062;45.120;37.660;2024-02-26T12:50:56;9.08;59.56
64652;HTU21D;51062;45.120;37.660;2024-02-26T12:53:22;9.08;59.49
64652;HTU21D;51062;45.120;37.660;2024-02-26T12:55:48;9.07;59.52
64652;HTU21D;51062;45.120;37.660;2024-02-26T12:58:15;9.08;59.53
64652;HTU21D;51062;45.120;37.660;2024-02-26T13:00:40;9.08;59.45
64652;HTU21D;51062;45.120;37.660;2024-02-26T13:03:06;9.08;59.49
64652;HTU21D;51062;45.120;37.660;2024-02-26T13:05:32;9.09;59.41
64652;HTU21D;51062;45.120;37.660;2024-02-26T13:07:59;9.09;59.41
64652;HTU21D;51062;45.120;37.660;2024-02-26T13:10:25;9.07;59.47
64652;HTU21D;51062;45.120;37.660;2024-02-26T13:12:51;9.06;59.41
64652;HTU21D;51062;45.120;37.660;2024-02-26T13:15:17;9.07;59.31
64652;HTU21D;51062;45.120;37.660;2024-02-26T13:17:44;9.04;59.22
64652;HTU21D;51062;45.120;37.660;2024-02-26T13:20:10;9.04;59.31
64652;HTU21D;51062;45.120;37.660;2024-02-26T13:22:36;9.02;59.22
64652;HTU21D;51062;45.120;37.660;2024-02-26T13:25:03;8.98;59.12
64652;HTU21D;51062;45.120;37.660;2024-02-26T13:27:29;8.98;59.21
64652;HTU21D;51062;45.120;37.660;2024-02-26T13:30:10;8.96;59.25
64652;HTU21D;51062;45.120;37.660;2024-02-26T13:32:37;8.97;59.22
64652;HTU21D;51062;45.120;37.660;2024-02-26T13:35:04;8.96;59.12
64652;HTU21D;51062;45.120;37.660;2024-02-26T13:37:31;8.94;59.11
64652;HTU21D;51062;45.120;37.660;2024-02-26T13:39:56;8.93;59.19
64652;HTU21D;51062;45.120;37.660;2024-02-26T13:42:22;8.92;59.23
64652;HTU21D;51062;45.120;37.660;2024-02-26T13:44:48;8.92;59.23
64652;HTU21D;51062;45.120;37.660;2024-02-26T13:47:14;8.91;59.18
64652;HTU21D;51062;45.120;37.660;2024-02-26T13:49:41;8.90;59.10
64652;HTU21D;51062;45.120;37.660;2024-02-26T13:52:07;8.86;59.11
64652;HTU21D;51062;45.120;37.660;2024-02-26T13:54:33;8.85;59.17
64652;HTU21D;51062;45.120;37.660;2024-02-26T13:57:00;8.83;59.29
64652;HTU21D;51062;45.120;37.660;2024-02-26T13:59:26;8.82;59.32
64652;HTU21D;51062;45.120;37.660;2024-02-26T14:01:52;8.80;59.29
64652;HTU21D;51062;45.120;37.660;2024-02-26T14:04:20;8.77;59.32
64652;HTU21D;51062;45.120;37.660;2024-02-26T14:06:46;8.75;59.26
64652;HTU21D;51062;45.120;37.660;2024-02-26T14:09:12;8.72;59.19
64652;HTU21D;51062;45.120;37.660;2024-02-26T14:11:47;8.70;59.26
64652;HTU21D;51062;45.120;37.660;2024-02-26T14:14:13;8.66;59.29
64652;HTU21D;51062;45.120;37.660;2024-02-26T14:16:39;8.61;59.39
64652;HTU21D;51062;45.120;37.660;2024-02-26T14:19:05;8.60;59.41
64652;HTU21D;51062;45.120;37.660;2024-02-26T14:21:31;8.55;59.48
64652;HTU21D;51062;45.120;37.660;2024-02-26T14:23:57;8.49;59.52
64652;HTU21D;51062;45.120;37.660;2024-02-26T14:26:23;8.43;59.57
64652;HTU21D;51062;45.120;37.660;2024-02-26T14:28:49;8.37;59.63
64652;HTU21D;51062;45.120;37.660;2024-02-26T14:31:18;8.32;59.67
64652;HTU21D;51062;45.120;37.660;2024-02-26T14:33:43;8.28;59.82
64652;HTU21D;51062;45.120;37.660;2024-02-26T14:36:10;8.23;59.82
64652;HTU21D;51062;45.120;37.660;2024-02-26T14:38:36;8.16;59.86
64652;HTU21D;51062;45.120;37.660;2024-02-26T14:41:02;8.11;59.86
64652;HTU21D;51062;45.120;37.660;2024-02-26T14:43:29;0.00;59.97
64652;HTU21D;51062;45.120;37.660;2024-02-26T14:45:55;7.92;60.03
64652;HTU21D;51062;45.120;37.660;2024-02-26T14:48:21;7.85;60.12
64652;HTU21D;51062;45.120;37.660;2024-02-26T14:50:47;7.76;60.23
64652;HTU21D;51062;45.120;37.660;2024-02-26T14:53:13;7.67;60.37
64652;HTU21D;51062;45.120;37.660;2024-02-26T14:55:39;7.59;60.45
64652;HTU21D;51062;45.120;37.660;2024-02-26T14:58:05;7.52;60.57
64652;HTU21D;51062;45.120;37.660;2024-02-26T15:00:31;7.45;60.64
64652;HTU21D;51062;45.120;37.660;2024-02-26T15:02:59;7.35;60.68
64652;HTU21D;51062;45.120;37.660;2024-02-26T15:05:25;7.26;60.74
64652;HTU21D;51062;45.120;37.660;2024-02-26T15:07:51;7.16;60.86
64652;HTU21D;51062;45.120;37.660;2024-02-26T15:10:17;7.10;60.94
64652;HTU21D;51062;45.120;37.660;2024-02-26T15:12:44;7.02;61.05
64652;HTU21D;51062;45.120;37.660;2024-02-26T15:15:10;6.96;61.10